Time;durP1;ratioP1;P1;durP2;ratioP2;P2;SDS_P1;SDS_P2;PMS_P1;PMS_P2;Temp;Humidity;BMP_temperature;BMP_pressure;BME280_temperature;BME280_humidity;BME280_pressure;Samples;Min_cycle;Max_cycle;Signal;HPM_P1;HPM_P2
2022/07/03 00:02:09;;;;;;;5.38;1.10;;;12.90;99.90;;;;;;5090865;28;20642;-60
2022/07/03 00:04:35;;;;;;;5.55;1.30;;;12.80;99.90;;;;;;5091441;28;20167;-59
2022/07/03 00:07:01;;;;;;;9.70;1.03;;;12.90;99.90;;;;;;5091440;28;20176;-59
2022/07/03 00:09:27;;;;;;;5.07;1.05;;;12.90;99.90;;;;;;5091474;28;20175;-59
2022/07/03 00:11:53;;;;;;;6.25;1.00;;;12.90;99.90;;;;;;5091277;28;20208;-59
2022/07/03 00:14:19;;;;;;;10.37;1.20;;;13.00;99.90;;;;;;5091345;28;20175;-60
2022/07/03 00:16:45;;;;;;;12.35;1.30;;;12.90;99.90;;;;;;5091255;28;20168;-60
2022/07/03 00:19:11;;;;;;;12.50;2.50;;;;;;;;;;5091144;28;20171;-60
2022/07/03 00:21:56;;;;;;;9.33;1.60;;;12.80;99.90;;;;;;5091245;28;20535;-60
2022/07/03 00:24:31;;;;;;;10.83;1.27;;;13.20;99.90;;;;;;5091171;28;20159;-59
2022/07/03 00:26:58;;;;;;;22.33;8.35;;;13.10;99.90;;;;;;5091157;28;20175;-59
2022/07/03 00:29:31;;;;;;;53.97;20.33;;;12.80;99.90;;;;;;5091470;28;20614;-60
2022/07/03 00:32:00;;;;;;;12.50;4.10;;;12.90;99.90;;;;;;5090864;28;20223;-60
2022/07/03 00:34:27;;;;;;;19.60;2.90;;;12.90;99.90;;;;;;5091187;28;20170;-60
2022/07/03 00:36:56;;;;;;;11.00;3.37;;;12.70;99.90;;;;;;5091203;28;20654;-60
2022/07/03 00:39:23;;;;;;;8.33;2.90;;;12.80;99.90;;;;;;5091000;28;20183;-59
2022/07/03 00:42:02;;;;;;;12.67;2.47;;;12.60;99.90;;;;;;5090882;28;20687;-59
2022/07/03 00:44:34;;;;;;;8.50;1.83;;;12.60;99.90;;;;;;5091093;28;20170;-59
2022/07/03 00:47:03;;;;;;;9.57;1.50;;;12.70;99.90;;;;;;5091041;28;20200;-59
2022/07/03 00:49:31;;;;;;;13.50;1.33;;;12.60;99.90;;;;;;5089669;28;20657;-59
2022/07/03 00:51:58;;;;;;;11.47;1.70;;;12.70;99.90;;;;;;5090797;28;20694;-59
2022/07/03 00:54:25;;;;;;;10.10;1.57;;;12.70;99.90;;;;;;5090898;28;20665;-60
2022/07/03 00:56:54;;;;;;;8.27;1.67;;;12.60;99.90;;;;;;5091178;28;20699;-59
2022/07/03 00:59:20;;;;;;;10.20;1.90;;;14.30;99.90;;;;;;5090908;28;20646;-60
2022/07/03 01:01:49;;;;;;;8.45;1.48;;;13.00;99.90;;;;;;5090986;28;20230;-60
2022/07/03 01:04:28;;;;;;;11.80;1.90;;;13.00;99.90;;;;;;5090669;28;20168;-59
2022/07/03 01:07:01;;;;;;;8.20;1.53;;;13.00;99.90;;;;;;5090672;28;20219;-59
2022/07/03 01:09:45;;;;;;;6.50;1.37;;;12.90;99.90;;;;;;5090791;28;20164;-60
2022/07/03 01:12:25;;;;;;;8.52;1.10;;;13.10;99.90;;;;;;5090737;28;20203;-59
2022/07/03 01:15:02;;;;;;;4.87;1.40;;;12.90;99.90;;;;;;5094315;28;20192;-60
2022/07/03 01:17:37;;;;;;;9.57;1.45;;;13.30;99.90;;;;;;5094472;28;20178;-60
2022/07/03 01:20:05;;;;;;;12.02;1.25;;;13.40;99.90;;;;;;5094516;28;20178;-60
2022/07/03 01:22:40;;;;;;;8.43;1.42;;;13.50;99.90;;;;;;5094798;28;20253;-60
2022/07/03 01:25:17;;;;;;;13.35;1.67;;;13.50;99.90;;;;;;5093081;28;20171;-60
2022/07/03 01:28:08;;;;;;;8.85;1.58;;;13.50;99.90;;;;;;5094338;28;20174;-59
2022/07/03 01:30:38;;;;;;;7.57;1.20;;;13.50;99.90;;;;;;5094107;28;20160;-60
2022/07/03 01:36:29;;;;;;;18.57;1.80;;;13.50;99.90;;;;;;5094430;28;20317;-60
2022/07/03 01:38:59;;;;;;;10.07;1.40;;;13.40;99.90;;;;;;5093733;28;20176;-59
2022/07/03 01:41:29;;;;;;;19.30;1.88;;;13.20;99.90;;;;;;5094213;28;20645;-59
2022/07/03 01:44:04;;;;;;;8.35;1.23;;;13.50;99.90;;;;;;5094085;28;20168;-59
2022/07/03 01:46:32;;;;;;;10.52;1.80;;;13.30;99.90;;;;;;5094119;28;20181;-59
2022/07/03 01:48:59;;;;;;;6.00;1.17;;;13.30;99.90;;;;;;5094005;28;20183;-60
2022/07/03 01:51:26;;;;;;;14.80;2.00;;;13.30;99.90;;;;;;5094115;28;20207;-60
2022/07/03 01:53:53;;;;;;;12.50;1.85;;;13.30;99.90;;;;;;5094120;28;20178;-60
2022/07/03 01:56:21;;;;;;;12.02;1.80;;;13.40;99.90;;;;;;5092565;28;20262;-60
2022/07/03 01:58:47;;;;;;;10.00;1.35;;;13.30;99.90;;;;;;5093816;28;20160;-60
2022/07/03 02:01:30;;;;;;;13.02;1.40;;;13.50;99.90;;;;;;5093800;28;20180;-60
2022/07/03 02:04:11;;;;;;;11.55;1.65;;;13.40;99.90;;;;;;5093729;28;20595;-59
2022/07/03 02:06:46;;;;;;;7.40;1.30;;;13.40;99.90;;;;;;5093723;28;20179;-59
2022/07/03 02:09:14;;;;;;;13.68;2.17;;;13.40;99.90;;;;;;5093701;28;20217;-59
2022/07/03 02:11:43;;;;;;;8.32;1.58;;;13.40;99.90;;;;;;5093515;28;20206;-59
2022/07/03 02:14:22;;;;;;;5.25;1.70;;;13.50;99.90;;;;;;5093717;28;20167;-60
2022/07/03 02:16:48;;;;;;;8.68;1.42;;;13.40;99.90;;;;;;5093527;28;20170;-60
2022/07/03 02:19:16;;;;;;;12.40;2.17;;;13.40;99.90;;;;;;5093470;28;20621;-60
2022/07/03 02:21:54;;;;;;;13.25;1.58;;;13.40;99.90;;;;;;5093440;28;20188;-60
2022/07/03 02:24:25;;;;;;;6.90;1.42;;;13.40;99.90;;;;;;5091273;28;20171;-59
2022/07/03 02:26:56;;;;;;;5.55;1.33;;;13.30;99.90;;;;;;5093457;28;20184;-59
2022/07/03 02:29:31;;;;;;;6.50;1.33;;;13.30;99.90;;;;;;5093325;28;20623;-60
2022/07/03 02:32:02;;;;;;;6.68;1.27;;;13.30;99.90;;;;;;5092986;28;20227;-59
2022/07/03 02:34:30;;;;;;;10.83;1.10;;;13.40;99.90;;;;;;5093095;28;20168;-59
2022/07/03 02:37:10;;;;;;;7.18;1.45;;;12.90;99.90;;;;;;5093123;28;20224;-59
2022/07/03 02:43:33;;;;;;;5.57;0.93;;;13.40;99.90;;;;;;5078642;28;20695;-59
2022/07/03 02:52:43;;;;;;;4.93;0.80;;;13.40;99.90;;;;;;5092749;28;20253;-59
2022/07/03 02:55:43;;;;;;;7.03;1.10;;;13.40;99.90;;;;;;5092765;28;20176;-59
2022/07/03 02:58:46;;;;;;;6.10;1.02;;;12.50;99.90;;;;;;5092779;28;20187;-60
2022/07/03 03:01:33;;;;;;;6.07;1.27;;;13.50;99.90;;;;;;5092672;28;20254;-59
2022/07/03 03:04:26;;;;;;;7.60;1.08;;;13.20;99.90;;;;;;5091344;28;20598;-60
2022/07/03 03:07:13;;;;;;;3.40;0.93;;;13.40;99.90;;;;;;5092626;28;20164;-59
2022/07/03 03:09:47;;;;;;;4.73;0.90;;;13.40;99.90;;;;;;5092664;28;20184;-60
2022/07/03 03:12:14;;;;;;;10.85;1.13;;;13.30;99.90;;;;;;5092315;28;20242;-60
2022/07/03 03:14:45;;;;;;;4.67;0.73;;;13.40;99.90;;;;;;5092313;28;20160;-59
2022/07/03 03:17:23;;;;;;;4.38;0.80;;;13.40;99.90;;;;;;5092316;28;20190;-60
2022/07/03 03:19:55;;;;;;;5.05;0.95;;;13.30;99.90;;;;;;5092355;28;20236;-60
2022/07/03 03:22:39;;;;;;;4.07;0.93;;;13.40;99.90;;;;;;5092218;28;20218;-59
2022/07/03 03:25:06;;;;;;;4.87;1.00;;;13.20;99.90;;;;;;5092145;28;20270;-59
2022/07/03 03:27:32;;;;;;;4.20;1.00;;;13.30;99.90;;;;;;5092162;28;20164;-60
2022/07/03 03:29:58;;;;;;;4.27;0.90;;;13.40;99.90;;;;;;5092099;28;20221;-60
2022/07/03 03:32:26;;;;;;;6.75;1.17;;;13.30;99.90;;;;;;3769905;28;22206;-59
2022/07/03 03:34:51;;;;;;;2.03;0.87;;;13.40;99.90;;;;;;5091987;28;20188;-59
2022/07/03 03:37:18;;;;;;;2.37;0.80;;;13.30;99.90;;;;;;5091274;28;20267;-59
2022/07/03 03:39:43;;;;;;;7.97;1.17;;;13.60;99.90;;;;;;5091917;28;20218;-59
2022/07/03 03:42:09;;;;;;;6.00;1.17;;;13.30;99.90;;;;;;5091953;28;20176;-59
2022/07/03 03:44:35;;;;;;;2.40;0.70;;;13.30;99.90;;;;;;5091820;28;20204;-59
2022/07/03 03:47:01;;;;;;;7.87;1.30;;;13.40;99.90;;;;;;5091850;28;20171;-59
2022/07/03 03:49:28;;;;;;;5.40;0.80;;;13.40;99.90;;;;;;5091862;28;20677;-59
2022/07/03 03:51:54;;;;;;;3.15;1.02;;;13.40;99.90;;;;;;5091624;28;20248;-59
2022/07/03 03:54:20;;;;;;;8.13;1.33;;;13.30;99.90;;;;;;5091722;28;20164;-59
2022/07/03 03:56:46;;;;;;;4.25;1.00;;;13.30;99.90;;;;;;5091607;28;20180;-59
2022/07/03 03:59:12;;;;;;;5.45;1.40;;;13.40;99.90;;;;;;5091534;28;20224;-60
2022/07/03 04:01:38;;;;;;;6.20;1.20;;;13.40;99.90;;;;;;5091594;28;20179;-59
2022/07/03 04:04:03;;;;;;;4.60;1.13;;;13.50;99.90;;;;;;5091504;28;20172;-59
2022/07/03 04:06:29;;;;;;;4.30;1.27;;;13.20;99.90;;;;;;5091529;28;20176;-59
2022/07/03 04:08:55;;;;;;;7.53;1.40;;;13.60;99.90;;;;;;5091382;28;20229;-59
2022/07/03 04:11:20;;;;;;;5.63;1.20;;;13.50;99.90;;;;;;5091381;28;20299;-59
2022/07/03 04:13:46;;;;;;;2.92;1.10;;;13.20;99.90;;;;;;5091317;28;20534;-59
2022/07/03 04:16:12;;;;;;;9.15;1.35;;;13.30;99.90;;;;;;5091318;28;20611;-60
2022/07/03 04:18:38;;;;;;;4.97;1.37;;;13.40;99.90;;;;;;5091218;28;20685;-59
2022/07/03 04:21:04;;;;;;;7.60;1.00;;;13.30;99.90;;;;;;5091290;28;20198;-61
2022/07/03 04:23:30;;;;;;;3.05;1.20;;;;;;;;;;5091433;28;20276;-60
2022/07/03 04:26:02;;;;;;;4.63;1.00;;;13.50;99.90;;;;;;5091288;28;20172;-59
2022/07/03 04:28:28;;;;;;;5.03;1.17;;;13.20;99.90;;;;;;5089837;28;20199;-60
2022/07/03 04:30:54;;;;;;;4.72;1.05;;;;;;;;;;5090993;28;20225;-60
2022/07/03 04:33:19;;;;;;;1.92;0.98;;;13.50;99.90;;;;;;5090848;28;20243;-60
2022/07/03 04:35:45;;;;;;;4.35;1.10;;;13.60;99.90;;;;;;5091112;28;20678;-60
2022/07/03 04:38:11;;;;;;;6.65;0.95;;;13.60;99.90;;;;;;5091035;28;20262;-60
2022/07/03 04:40:37;;;;;;;5.70;1.02;;;13.50;99.90;;;;;;5091022;28;20175;-60
2022/07/03 04:43:02;;;;;;;3.70;0.98;;;13.60;99.90;;;;;;5091034;28;20175;-60
2022/07/03 04:45:28;;;;;;;6.75;1.15;;;13.60;99.90;;;;;;5091072;28;20685;-59
2022/07/03 04:47:54;;;;;;;11.55;1.23;;;13.60;99.90;;;;;;5092989;28;20669;-60
2022/07/03 04:50:20;;;;;;;3.50;1.23;;;12.60;99.90;;;;;;5095436;28;20207;-60
2022/07/03 04:52:46;;;;;;;6.63;1.25;;;13.60;99.90;;;;;;5095034;28;20700;-60
2022/07/03 04:55:12;;;;;;;7.22;1.35;;;13.70;99.90;;;;;;5095116;28;20260;-60
2022/07/03 04:57:38;;;;;;;3.55;1.10;;;13.60;99.90;;;;;;5095025;28;20532;-60
2022/07/03 05:00:04;;;;;;;3.50;0.90;;;13.80;99.90;;;;;;5095014;28;20225;-59
2022/07/03 05:02:30;;;;;;;4.63;1.20;;;13.80;99.90;;;;;;5094988;28;20172;-60
2022/07/03 05:04:56;;;;;;;4.90;1.40;;;13.70;99.90;;;;;;5095088;28;20168;-59
2022/07/03 05:07:22;;;;;;;6.25;1.52;;;13.70;99.90;;;;;;5094881;28;20174;-59
2022/07/03 05:09:48;;;;;;;4.35;1.02;;;13.70;99.90;;;;;;5094826;28;20178;-60
2022/07/03 05:12:13;;;;;;;7.53;1.35;;;13.80;99.90;;;;;;5094652;28;20212;-59
2022/07/03 05:14:39;;;;;;;3.70;1.05;;;13.80;99.90;;;;;;5094842;28;20164;-59
2022/07/03 05:17:05;;;;;;;6.43;1.40;;;13.80;99.90;;;;;;5094594;28;20175;-59
2022/07/03 05:19:31;;;;;;;3.60;1.10;;;13.80;99.90;;;;;;5094509;28;20192;-59
2022/07/03 05:21:56;;;;;;;6.00;1.40;;;14.10;99.90;;;;;;5094542;28;20207;-59
2022/07/03 05:24:23;;;;;;;4.22;1.38;;;13.90;99.90;;;;;;5094595;28;20171;-59
2022/07/03 05:26:50;;;;;;;4.57;1.25;;;15.60;99.90;;;;;;5094465;28;20653;-59
2022/07/03 05:29:15;;;;;;;8.40;1.27;;;14.00;99.90;;;;;;5094367;28;20192;-59
2022/07/03 05:31:41;;;;;;;4.15;1.33;;;13.90;99.90;;;;;;5094306;28;20203;-59
2022/07/03 05:34:08;;;;;;;4.53;1.10;;;13.70;99.90;;;;;;5094166;28;20613;-59
2022/07/03 05:36:33;;;;;;;8.45;1.52;;;14.00;99.90;;;;;;5094198;28;20184;-59
2022/07/03 05:41:44;;;;;;;5.93;1.40;;;13.90;99.90;;;;;;5094497;28;20217;-59
2022/07/03 05:44:09;;;;;;;6.20;1.38;;;13.90;99.90;;;;;;5094121;28;20250;-59
2022/07/03 05:46:35;;;;;;;7.82;1.33;;;13.90;99.90;;;;;;5094074;28;20186;-59
2022/07/03 05:49:01;;;;;;;7.70;2.15;;;14.00;99.90;;;;;;5094092;28;20533;-59
2022/07/03 05:51:27;;;;;;;8.57;1.67;;;14.00;99.90;;;;;;5093975;28;20206;-59
2022/07/03 05:53:52;;;;;;;10.63;1.77;;;14.00;99.90;;;;;;5093989;28;20202;-60
2022/07/03 05:56:18;;;;;;;6.03;1.40;;;14.10;99.90;;;;;;5093953;28;20176;-60
2022/07/03 05:58:44;;;;;;;5.38;1.65;;;14.00;99.90;;;;;;5093002;28;20645;-60
2022/07/03 06:01:09;;;;;;;6.00;1.45;;;14.10;99.90;;;;;;5093748;28;20637;-60
2022/07/03 06:03:35;;;;;;;5.50;1.50;;;14.00;99.90;;;;;;5093834;28;20172;-60
2022/07/03 06:06:01;;;;;;;5.85;1.45;;;14.00;99.90;;;;;;5092451;28;20172;-60
2022/07/03 06:08:27;;;;;;;7.35;1.52;;;14.10;99.90;;;;;;5093741;28;20178;-60
2022/07/03 06:10:53;;;;;;;5.70;1.27;;;14.30;99.90;;;;;;5093549;28;20159;-60
2022/07/03 06:13:19;;;;;;;8.07;1.58;;;14.20;99.90;;;;;;5093669;28;20168;-60
2022/07/03 06:15:45;;;;;;;7.78;1.55;;;14.20;99.90;;;;;;5093780;28;20211;-64
2022/07/03 06:18:10;;;;;;;8.98;1.60;;;14.30;99.90;;;;;;5093508;28;20168;-60
2022/07/03 06:20:36;;;;;;;6.78;2.08;;;14.30;99.90;;;;;;5093490;28;20175;-60
2022/07/03 06:23:02;;;;;;;7.85;1.50;;;14.50;99.90;;;;;;5093561;28;20221;-60
2022/07/03 06:25:28;;;;;;;5.05;1.55;;;14.50;99.90;;;;;;5093347;28;20643;-60
2022/07/03 06:27:54;;;;;;;5.38;1.60;;;14.60;99.90;;;;;;5093318;28;20248;-59
2022/07/03 06:30:20;;;;;;;11.02;2.08;;;;;;;;;;5093215;28;20175;-59
2022/07/03 06:32:45;;;;;;;7.07;1.75;;;14.80;99.90;;;;;;5093215;28;20206;-60
2022/07/03 06:35:11;;;;;;;7.88;1.67;;;14.80;99.90;;;;;;5091850;28;20172;-59
2022/07/03 06:37:37;;;;;;;5.70;1.75;;;15.00;99.90;;;;;;5093080;28;20179;-59
2022/07/03 06:40:03;;;;;;;10.40;1.80;;;11.80;99.90;;;;;;5093110;28;20172;-59
2022/07/03 06:42:29;;;;;;;7.57;1.90;;;15.10;99.90;;;;;;5092883;28;20184;-59
2022/07/03 06:44:54;;;;;;;13.38;1.77;;;15.10;99.90;;;;;;5093202;28;20246;-60
2022/07/03 06:47:20;;;;;;;10.85;1.70;;;15.10;99.90;;;;;;5093041;28;20275;-59
2022/07/03 06:49:46;;;;;;;7.05;1.80;;;15.30;99.90;;;;;;5092892;28;20630;-59
2022/07/03 06:52:11;;;;;;;12.15;2.28;;;15.40;99.90;;;;;;5092843;28;20200;-59
2022/07/03 06:54:39;;;;;;;9.15;1.92;;;15.60;99.90;;;;;;5092846;28;20530;-59
2022/07/03 06:57:05;;;;;;;9.32;2.10;;;15.50;99.90;;;;;;5092778;28;20186;-59
2022/07/03 06:59:31;;;;;;;8.02;1.70;;;15.40;99.90;;;;;;5092653;28;20172;-59
2022/07/03 07:01:57;;;;;;;11.25;1.88;;;15.60;99.90;;;;;;5091328;28;20176;-61
2022/07/03 07:04:22;;;;;;;6.95;1.67;;;15.70;99.90;;;;;;5092625;28;20176;-60
2022/07/03 07:06:48;;;;;;;5.28;1.73;;;15.80;99.90;;;;;;5092615;28;20203;-59
2022/07/03 07:09:14;;;;;;;8.07;1.60;;;15.70;99.90;;;;;;5092462;28;20646;-59
2022/07/03 07:11:39;;;;;;;7.85;1.63;;;15.60;99.90;;;;;;5091310;28;20213;-59
2022/07/03 07:14:05;;;;;;;8.68;1.90;;;15.50;99.90;;;;;;5092322;28;20172;-59
2022/07/03 07:16:31;;;;;;;5.53;2.00;;;15.50;99.90;;;;;;5092309;28;20262;-59
2022/07/03 07:18:57;;;;;;;12.95;1.88;;;15.50;99.90;;;;;;5092326;28;20164;-60
2022/07/03 07:21:22;;;;;;;9.43;2.00;;;15.50;99.90;;;;;;5092206;28;20168;-60
2022/07/03 07:23:48;;;;;;;9.77;1.90;;;15.50;99.90;;;;;;5092233;28;20168;-60
2022/07/03 07:26:14;;;;;;;11.35;2.72;;;15.60;99.90;;;;;;5092140;28;20175;-59
2022/07/03 07:28:39;;;;;;;8.82;2.25;;;15.80;99.90;;;;;;5092122;28;20255;-59
2022/07/03 07:31:05;;;;;;;10.98;2.53;;;15.80;99.90;;;;;;5091985;28;20227;-59
2022/07/03 07:33:31;;;;;;;10.23;2.40;;;15.90;99.90;;;;;;5091821;28;20215;-59
2022/07/03 07:35:57;;;;;;;9.48;2.53;;;15.90;99.90;;;;;;5092030;28;20171;-60
2022/07/03 07:38:22;;;;;;;11.27;2.95;;;16.00;99.90;;;;;;5091884;28;20504;-60
2022/07/03 07:40:48;;;;;;;10.40;3.03;;;16.00;99.90;;;;;;5091959;28;20657;-60
2022/07/03 07:43:14;;;;;;;13.95;3.35;;;16.00;99.90;;;;;;5091787;28;20160;-60
2022/07/03 07:45:40;;;;;;;14.43;3.25;;;16.30;99.90;;;;;;5091771;28;20254;-60
2022/07/03 07:48:06;;;;;;;10.60;3.17;;;16.30;99.90;;;;;;5091858;28;20527;-59
2022/07/03 07:50:32;;;;;;;7.90;2.90;;;16.30;99.90;;;;;;5091748;28;20217;-60
2022/07/03 07:52:57;;;;;;;6.20;3.13;;;16.50;99.90;;;;;;5091678;28;20203;-60
2022/07/03 07:55:25;;;;;;;12.20;3.70;;;18.10;99.90;;;;;;5091608;28;20172;-60
2022/07/03 07:57:51;;;;;;;12.02;3.80;;;16.70;99.90;;;;;;5091834;28;20255;-59
2022/07/03 08:00:18;;;;;;;12.68;4.25;;;16.90;99.90;;;;;;5091601;28;20247;-59
2022/07/03 08:05:36;;;;;;;10.32;3.95;;;16.90;99.90;;;;;;5091718;28;20211;-60
2022/07/03 08:08:07;;;;;;;11.20;3.58;;;17.80;99.90;;;;;;5091431;28;20247;-60
2022/07/03 08:10:47;;;;;;;9.50;3.70;;;17.70;99.90;;;;;;5091591;28;20160;-60
2022/07/03 08:13:16;;;;;;;9.43;3.30;;;17.60;99.90;;;;;;5091410;28;20183;-60
2022/07/03 08:15:42;;;;;;;12.30;3.03;;;17.80;99.90;;;;;;5091518;28;20188;-60
2022/07/03 08:18:09;;;;;;;18.10;2.65;;;17.80;99.90;;;;;;5091294;28;20267;-60
2022/07/03 08:20:36;;;;;;;6.43;2.47;;;18.40;99.90;;;;;;5091287;28;20203;-60
2022/07/03 08:23:02;;;;;;;9.90;2.50;;;17.80;99.90;;;;;;5090992;28;20179;-59
2022/07/03 08:25:29;;;;;;;8.43;2.33;;;17.80;99.90;;;;;;5091390;28;20247;-61
2022/07/03 08:27:56;;;;;;;10.98;2.50;;;17.80;99.90;;;;;;5091662;28;20183;-59
2022/07/03 08:30:22;;;;;;;10.07;2.17;;;18.00;99.90;;;;;;5091256;28;20183;-61
2022/07/03 08:32:51;;;;;;;11.35;2.38;;;18.00;99.90;;;;;;5090825;28;20231;-62
2022/07/03 08:35:17;;;;;;;5.97;2.00;;;18.40;99.90;;;;;;5091033;28;20176;-61
2022/07/03 08:37:46;;;;;;;7.55;1.95;;;18.20;99.90;;;;;;5091201;28;20195;-62
2022/07/03 08:40:13;;;;;;;9.48;2.78;;;18.20;99.90;;;;;;5091182;28;20167;-61
2022/07/03 08:42:48;;;;;;;8.38;2.15;;;17.90;99.90;;;;;;5091128;28;20164;-61
2022/07/03 08:45:19;;;;;;;9.05;2.13;;;17.80;99.90;;;;;;5091040;28;20249;-61
2022/07/03 08:47:46;;;;;;;5.55;1.98;;;20.10;99.90;;;;;;5091034;28;20156;-62
2022/07/03 08:50:13;;;;;;;10.98;1.95;;;18.90;99.90;;;;;;5091051;28;20642;-61
2022/07/03 08:52:40;;;;;;;10.05;1.95;;;19.40;99.90;;;;;;5090721;28;20694;-61
2022/07/03 08:55:07;;;;;;;12.50;2.10;;;19.70;99.90;;;;;;5090933;28;20240;-61
2022/07/03 08:57:35;;;;;;;13.88;2.47;;;19.60;99.90;;;;;;5091300;28;20171;-60
2022/07/03 09:00:05;;;;;;;9.30;3.10;;;19.70;99.90;;;;;;5091312;28;20176;-61
2022/07/03 09:02:32;;;;;;;9.00;3.30;;;18.90;99.90;;;;;;5091078;28;20164;-61
2022/07/03 09:04:59;;;;;;;9.75;3.10;;;18.50;99.90;;;;;;5090901;28;20171;-62
2022/07/03 09:07:27;;;;;;;12.73;3.40;;;18.30;99.90;;;;;;5090859;28;20546;-60
2022/07/03 09:09:53;;;;;;;12.10;3.53;;;18.10;99.90;;;;;;5090896;28;20179;-60
2022/07/03 09:12:19;;;;;;;7.13;2.95;;;17.90;99.90;;;;;;5090809;28;20298;-60
2022/07/03 09:14:45;;;;;;;10.52;2.78;;;18.00;99.90;;;;;;5090738;28;20171;-60
2022/07/03 09:17:11;;;;;;;10.07;3.47;;;18.00;99.90;;;;;;5089620;28;20163;-60
2022/07/03 09:19:42;;;;;;;13.68;2.80;;;18.10;99.90;;;;;;5090918;28;20190;-60
2022/07/03 09:22:29;;;;;;;10.63;2.00;;;18.10;99.90;;;;;;5090620;28;20718;-60
2022/07/03 09:25:14;;;;;;;9.30;1.60;;;17.70;99.90;;;;;;5090459;28;20546;-60
2022/07/03 09:27:52;;;;;;;6.93;1.63;;;17.10;99.90;;;;;;5090687;28;20168;-60
2022/07/03 09:30:18;;;;;;;8.85;1.85;;;17.10;99.90;;;;;;5090555;28;20749;-60
2022/07/03 09:32:46;;;;;;;14.75;2.47;;;17.00;99.90;;;;;;5090375;28;20284;-60
2022/07/03 09:35:20;;;;;;;9.38;2.05;;;17.00;99.90;;;;;;5092716;28;20237;-60
2022/07/03 09:38:04;;;;;;;14.65;2.08;;;16.90;99.90;;;;;;5094588;28;20175;-60
2022/07/03 09:40:52;;;;;;;6.43;1.75;;;16.90;99.90;;;;;;5094403;28;20211;-60
2022/07/03 09:43:31;;;;;;;10.32;1.73;;;16.90;99.90;;;;;;5094173;28;20168;-60
2022/07/03 09:45:56;;;;;;;9.73;1.77;;;16.70;99.90;;;;;;5094105;28;20164;-60
2022/07/03 09:48:25;;;;;;;8.05;2.03;;;16.80;99.90;;;;;;5093837;28;20631;-60
2022/07/03 09:51:12;;;;;;;10.43;2.10;;;16.80;99.90;;;;;;5094039;28;20179;-60
2022/07/03 09:53:48;;;;;;;12.95;2.00;;;17.00;99.90;;;;;;5094005;28;20566;-60
2022/07/03 09:56:16;;;;;;;10.80;2.40;;;17.00;99.90;;;;;;5093835;28;20186;-61
2022/07/03 09:58:58;;;;;;;8.77;1.75;;;17.20;99.90;;;;;;5092589;28;20582;-61
2022/07/03 10:01:24;;;;;;;12.38;2.22;;;17.40;99.90;;;;;;5093866;28;20176;-60
2022/07/03 10:03:50;;;;;;;7.22;1.63;;;17.50;99.90;;;;;;5093647;28;20537;-62
2022/07/03 10:06:15;;;;;;;10.30;2.55;;;17.60;99.90;;;;;;5093783;28;20240;-60
2022/07/03 10:08:43;;;;;;;15.23;2.13;;;17.80;99.90;;;;;;5093552;28;20239;-61
2022/07/03 10:11:09;;;;;;;8.73;2.22;;;18.20;99.90;;;;;;5093594;28;20722;-61
2022/07/03 10:13:40;;;;;;;8.50;1.90;;;18.20;99.90;;;;;;5093714;28;20179;-61
2022/07/03 10:16:06;;;;;;;9.60;2.25;;;18.40;99.90;;;;;;5093654;28;20180;-61
2022/07/03 10:18:37;;;;;;;12.90;2.13;;;18.80;99.90;;;;;;5093658;28;20199;-61
2022/07/03 10:21:06;;;;;;;14.70;2.13;;;19.30;99.90;;;;;;5093439;28;20176;-61
2022/07/03 10:23:32;;;;;;;10.23;1.80;;;19.70;99.90;;;;;;5093369;28;20182;-61
2022/07/03 10:25:58;;;;;;;10.15;1.58;;;20.00;99.90;;;;;;5093700;28;20187;-62
2022/07/03 10:28:24;;;;;;;7.85;1.85;;;20.30;99.90;;;;;;5093470;28;20179;-61
2022/07/03 10:30:50;;;;;;;9.40;1.60;;;20.10;99.90;;;;;;5093261;28;20175;-61
2022/07/03 10:33:17;;;;;;;9.07;2.00;;;19.70;99.90;;;;;;5093168;28;20219;-61
2022/07/03 10:35:47;;;;;;;11.30;2.50;;;19.30;99.90;;;;;;5093191;28;20266;-61
2022/07/03 10:38:16;;;;;;;12.30;2.22;;;19.00;99.90;;;;;;5093124;28;20172;-61
2022/07/03 10:46:16;;;;;;;14.35;2.65;;;18.50;99.90;;;;;;5092960;28;20175;-60
2022/07/03 10:49:03;;;;;;;16.30;3.40;;;18.30;99.90;;;;;;5092891;28;20631;-61
2022/07/03 10:51:32;;;;;;;14.10;2.85;;;18.30;99.90;;;;;;5092777;28;20218;-60
2022/07/03 10:54:19;;;;;;;8.93;2.85;;;18.50;99.90;;;;;;5093006;28;20255;-60
2022/07/03 10:57:00;;;;;;;10.60;2.88;;;18.50;99.90;;;;;;5092730;28;20526;-60
2022/07/03 10:59:32;;;;;;;5.72;2.55;;;18.80;99.90;;;;;;5092723;28;20646;-61
2022/07/03 11:02:17;;;;;;;8.18;2.63;;;19.00;99.90;;;;;;5092822;28;20179;-60
2022/07/03 11:04:58;;;;;;;9.98;2.60;;;19.20;99.90;;;;;;5092744;28;20534;-61
2022/07/03 11:07:34;;;;;;;3.35;1.73;;;19.60;99.90;;;;;;5092850;28;20176;-61
2022/07/03 11:10:16;;;;;;;7.63;1.88;;;20.30;99.90;;;;;;5092743;28;20175;-61
2022/07/03 11:13:20;;;;;;;5.85;2.00;;;20.40;99.90;;;;;;5092670;28;20223;-61
2022/07/03 11:15:54;;;;;;;4.57;1.73;;;20.80;99.90;;;;;;5092474;28;20183;-61
2022/07/03 11:18:30;;;;;;;6.10;2.05;;;21.20;99.90;;;;;;5092758;28;20531;-61
2022/07/03 11:21:14;;;;;;;10.27;2.05;;;21.70;99.90;;;;;;5092675;28;20160;-61
2022/07/03 11:24:14;;;;;;;5.97;1.77;;;21.60;99.90;;;;;;5092952;28;20172;-61
2022/07/03 11:26:39;;;;;;;4.65;1.73;;;21.50;99.90;;;;;;5092617;28;20179;-61
2022/07/03 11:29:05;;;;;;;4.07;1.65;;;21.70;99.90;;;;;;5092212;28;20247;-61
2022/07/03 11:31:31;;;;;;;4.82;1.50;;;20.80;99.90;;;;;;5092062;28;20242;-61
2022/07/03 11:33:58;;;;;;;6.40;1.90;;;20.60;99.90;;;;;;5091971;28;20216;-61
2022/07/03 11:36:32;;;;;;;3.97;1.83;;;20.70;99.90;;;;;;5092122;28;20631;-61
2022/07/03 11:38:58;;;;;;;4.93;1.90;;;20.70;99.90;;;;;;5092355;28;20172;-61
2022/07/03 11:41:45;;;;;;;4.75;1.90;;;20.50;99.90;;;;;;5091922;28;20168;-61
2022/07/03 11:44:16;;;;;;;7.88;1.65;;;20.20;99.90;;;;;;5091622;28;20654;-61
2022/07/03 11:46:46;;;;;;;2.38;1.20;;;20.30;99.90;;;;;;5091830;28;20221;-61
2022/07/03 11:49:13;;;;;;;2.22;1.15;;;20.30;99.90;;;;;;5092031;28;20160;-61
2022/07/03 11:51:41;;;;;;;6.78;1.30;;;20.30;99.90;;;;;;5091866;28;20256;-61
2022/07/03 11:54:07;;;;;;;2.95;0.90;;;20.30;99.90;;;;;;5091941;28;20163;-61
2022/07/03 11:56:35;;;;;;;3.83;0.90;;;20.10;99.90;;;;;;5091579;28;20174;-61
2022/07/03 11:59:03;;;;;;;4.72;1.27;;;20.50;99.90;;;;;;5091832;28;20172;-61
2022/07/03 12:01:36;;;;;;;3.70;1.00;;;21.10;99.90;;;;;;5093758;28;20225;-61
2022/07/03 12:04:24;;;;;;;2.83;1.17;;;21.80;99.90;;;;;;5092229;28;20168;-61
2022/07/03 12:06:57;;;;;;;6.28;1.20;;;21.90;99.90;;;;;;5090490;28;20171;-61
2022/07/03 12:09:27;;;;;;;4.75;0.95;;;22.20;99.90;;;;;;5091941;28;20195;-61
2022/07/03 12:11:57;;;;;;;1.95;0.88;;;22.30;99.90;;;;;;5091637;28;20206;-61
2022/07/03 12:14:48;;;;;;;5.10;1.30;;;23.70;99.90;;;;;;5091622;28;20187;-61
2022/07/03 12:17:17;;;;;;;4.68;1.33;;;23.70;99.90;;;;;;5090218;28;20168;-61
2022/07/03 12:19:45;;;;;;;3.60;0.80;;;24.80;99.90;;;;;;5091373;28;20260;-61
2022/07/03 12:22:11;;;;;;;3.55;0.90;;;25.50;99.90;;;;;;5091278;28;20538;-61
2022/07/03 12:24:37;;;;;;;3.00;0.82;;;25.10;99.90;;;;;;5091379;28;20164;-61
2022/07/03 12:27:04;;;;;;;2.05;0.80;;;25.00;99.90;;;;;;5091465;28;20183;-61
2022/07/03 12:29:31;;;;;;;5.35;0.80;;;23.90;99.90;;;;;;5091692;28;20176;-61
2022/07/03 12:31:57;;;;;;;2.92;0.80;;;23.70;99.90;;;;;;5091142;28;20255;-61
2022/07/03 12:34:43;;;;;;;1.77;0.65;;;23.50;99.90;;;;;;4487223;28;20288;-61
2022/07/03 12:37:09;;;;;;;3.42;0.82;;;23.10;99.90;;;;;;5088803;28;20196;-63
2022/07/03 12:39:45;;;;;;;1.90;0.65;;;22.70;99.90;;;;;;5088931;28;20179;-61
2022/07/03 12:42:21;;;;;;;5.20;0.75;;;23.10;99.90;;;;;;5088729;28;20649;-61
2022/07/03 12:48:15;;;;;;;1.20;0.63;;;23.00;99.90;;;;;;5088584;28;20263;-61
2022/07/03 12:50:46;;;;;;;1.75;0.60;;;23.30;99.90;;;;;;5088772;28;20274;-61
2022/07/03 12:53:31;;;;;;;4.15;0.88;;;23.20;99.90;;;;;;5088803;28;20211;-61
2022/07/03 12:56:02;;;;;;;3.08;0.60;;;23.20;99.90;;;;;;5088658;28;20223;-61
2022/07/03 13:01:30;;;;;;;1.15;0.50;;;22.60;99.90;;;;;;5088986;28;20681;-61
2022/07/03 13:03:56;;;;;;;1.60;0.40;;;22.20;99.90;;;;;;5088569;28;20253;-61
2022/07/03 13:06:23;;;;;;;1.60;0.50;;;22.50;99.90;;;;;;5090220;28;20180;-61
2022/07/03 13:08:58;;;;;;;4.20;0.60;;;22.80;99.90;;;;;;5092461;28;20259;-62
2022/07/03 13:11:30;;;;;;;2.03;0.65;;;23.10;99.90;;;;;;5094632;28;20632;-61
2022/07/03 13:14:13;;;;;;;2.20;0.80;;;23.00;99.90;;;;;;5094700;28;20199;-61
2022/07/03 13:16:44;;;;;;;1.92;0.70;;;23.00;99.90;;;;;;5094728;28;20702;-61
2022/07/03 13:19:13;;;;;;;3.13;0.55;;;22.40;99.90;;;;;;5095604;28;20203;-62
2022/07/03 13:21:39;;;;;;;2.80;0.70;;;21.70;99.90;;;;;;5095086;28;20642;-62
2022/07/03 13:24:07;;;;;;;2.35;0.50;;;21.70;99.90;;;;;;5094934;28;20183;-62
2022/07/03 13:26:34;;;;;;;1.25;0.60;;;21.70;99.90;;;;;;5094648;28;20250;-62
2022/07/03 13:28:59;;;;;;;1.92;0.70;;;21.20;99.90;;;;;;5094592;28;20175;-62
2022/07/03 13:31:25;;;;;;;2.97;0.88;;;20.90;99.90;;;;;;5094421;28;20207;-62